Gibraltar's weather forecast for the week

Aktuelles Wetter in Gibraltar

Wetter

Teilweise bewölkt
Bewölkung 25%

Temperatur

16°C
Minimum 16°C
Maximum 20°C

Wind

20 km/h
Windböen 23 km/h

Feuchtigeit

91%
Taupunkt 14°C
Temperatur Fühlt sich Niederschlag Feuchtigkeit
00:00am Teilweise bewölkt 16°C 16°C 0 mm 91%
03:00am Teilweise bewölkt 18°C 16°C 0 mm 92%
06:00am Teilweise bewölkt 19°C 16°C 0 mm 93%
09:00am Teilweise bewölkt 18°C 18°C 0 mm 85%
12:00pm Teilweise bewölkt 19°C 19°C 0 mm 76%
15:00pm Teilweise bewölkt 20°C 20°C 0 mm 73%
18:00pm Teilweise bewölkt 19°C 19°C 0 mm 72%
21:00pm Teilweise bewölkt 17°C 17°C 0 mm 76%
Temperatur Fühlt sich Niederschlag Feuchtigkeit
00:00am Teilweise bewölkt 17°C 17°C 0 mm 83%
03:00am Teilweise bewölkt 16°C 16°C 0 mm 88%
06:00am Teilweise bewölkt 16°C 16°C 0 mm 89%
09:00am Teilweise bewölkt 18°C 18°C 0 mm 77%
12:00pm Sonnig 19°C 19°C 0 mm 70%
15:00pm Sonnig 19°C 19°C 0 mm 70%
18:00pm Sonnig 19°C 19°C 0 mm 76%
21:00pm Sonnig 17°C 17°C 0 mm 86%
Temperatur Fühlt sich Niederschlag Feuchtigkeit
00:00am Teilweise bewölkt 16°C 16°C 0 mm 89%
03:00am Wolkenlos 18°C 16°C 0 mm 89%
06:00am Teilweise bewölkt 21°C 16°C 0 mm 87%
09:00am Sonnig 18°C 18°C 0 mm 84%
12:00pm Teilweise bewölkt 21°C 21°C 0 mm 70%
15:00pm Sonnig 22°C 24°C 0 mm 68%
18:00pm Teilweise bewölkt 21°C 21°C 0 mm 72%
21:00pm Teilweise bewölkt 18°C 18°C 0 mm 79%
Temperatur Fühlt sich Niederschlag Feuchtigkeit
00:00am Teilweise bewölkt 17°C 17°C 0 mm 82%
03:00am Teilweise bewölkt 18°C 17°C 0 mm 78%
06:00am Teilweise bewölkt 22°C 17°C 0 mm 84%
09:00am Sonnig 18°C 18°C 0 mm 78%
12:00pm Sonnig 21°C 21°C 0 mm 70%
15:00pm Sonnig 23°C 25°C 0 mm 61%
18:00pm Sonnig 22°C 22°C 0 mm 59%
21:00pm Sonnig 18°C 18°C 0 mm 73%
Temperatur Fühlt sich Niederschlag Feuchtigkeit
00:00am Teilweise bewölkt 17°C 17°C 0 mm 89%
03:00am Wolkenlos 18°C 17°C 0 mm 85%
06:00am Wolkenlos 18°C 16°C 0 mm 80%
09:00am Teilweise bewölkt 18°C 18°C 0 mm 70%
12:00pm Sonnig 19°C 19°C 0 mm 70%
15:00pm Teilweise bewölkt 19°C 19°C 0 mm 69%
18:00pm Teilweise bewölkt 18°C 18°C 0 mm 74%
21:00pm Sonnig 17°C 17°C 0 mm 83%
Temperatur Fühlt sich Niederschlag Feuchtigkeit
00:00am Teilweise bewölkt 17°C 17°C 0 mm 84%
03:00am Teilweise bewölkt 19°C 17°C 0 mm 84%
06:00am Wolkenlos 23°C 16°C 0 mm 78%
09:00am Sonnig 19°C 19°C 0 mm 67%
12:00pm Sonnig 22°C 22°C 0 mm 54%
15:00pm Sonnig 24°C 25°C 0 mm 50%
18:00pm Sonnig 23°C 25°C 0 mm 52%
21:00pm Sonnig 20°C 20°C 0 mm 63%
Temperatur Fühlt sich Niederschlag Feuchtigkeit
00:00am Wolkenlos 19°C 19°C 0 mm 54%
03:00am Wolkenlos 21°C 19°C 0 mm 53%
06:00am Teilweise bewölkt 20°C 19°C 0 mm 57%
09:00am Teilweise bewölkt 21°C 21°C 0 mm 58%
12:00pm Sonnig 21°C 21°C 0 mm 61%
15:00pm Sonnig 21°C 21°C 0 mm 60%
18:00pm Sonnig 20°C 20°C 0 mm 62%
21:00pm Sonnig 19°C 19°C 0 mm 68%

Speichern Sie Ihre Lieblingsorte, erhalten Sie noch mehr Gezeiteninformationen, weniger Werbung und mehr ...

Loggen Sie sich mit Ihrem Facebook-Konto bei Tidechart mit einem Klick ein (KOSTENLOS!)